sensor_id;sensor_type;location;lat;lon;timestamp;pressure;altitude;pressure_sealevel;temperature;humidity
74370;BME280;71062;44.520;11.342;2023-12-07T00:01:34;101248.16;;;3.63;97.32
74370;BME280;71062;44.520;11.342;2023-12-07T00:04:01;101269.50;;;3.69;97.72
74370;BME280;71062;44.520;11.342;2023-12-07T00:06:26;101262.91;;;3.64;97.86
74370;BME280;71062;44.520;11.342;2023-12-07T00:08:52;101260.50;;;3.74;97.55
74370;BME280;71062;44.520;11.342;2023-12-07T00:11:18;101260.03;;;3.77;97.19
74370;BME280;71062;44.520;11.342;2023-12-07T00:13:43;101258.78;;;3.73;96.87
74370;BME280;71062;44.520;11.342;2023-12-07T00:16:09;101261.56;;;3.73;97.38
74370;BME280;71062;44.520;11.342;2023-12-07T00:18:35;101257.09;;;3.72;96.97
74370;BME280;71062;44.520;11.342;2023-12-07T00:21:01;101257.53;;;3.69;96.90
74370;BME280;71062;44.520;11.342;2023-12-07T00:23:27;101257.53;;;3.69;96.99
74370;BME280;71062;44.520;11.342;2023-12-07T00:25:52;101255.56;;;3.76;96.96
74370;BME280;71062;44.520;11.342;2023-12-07T00:28:18;101255.75;;;3.81;96.30
74370;BME280;71062;44.520;11.342;2023-12-07T00:30:43;101251.03;;;3.81;96.16
74370;BME280;71062;44.520;11.342;2023-12-07T00:33:09;101252.03;;;3.87;95.73
74370;BME280;71062;44.520;11.342;2023-12-07T00:35:35;101250.72;;;3.96;95.21
74370;BME280;71062;44.520;11.342;2023-12-07T00:38:01;101246.69;;;3.92;95.05
74370;BME280;71062;44.520;11.342;2023-12-07T00:40:27;101244.56;;;3.87;95.13
74370;BME280;71062;44.520;11.342;2023-12-07T00:42:53;101254.41;;;3.90;95.20
74370;BME280;71062;44.520;11.342;2023-12-07T00:45:18;101241.31;;;3.97;95.31
74370;BME280;71062;44.520;11.342;2023-12-07T00:47:45;101235.56;;;3.92;95.08
74370;BME280;71062;44.520;11.342;2023-12-07T00:50:13;101241.56;;;3.89;95.52
74370;BME280;71062;44.520;11.342;2023-12-07T00:52:40;101239.25;;;3.86;95.64
74370;BME280;71062;44.520;11.342;2023-12-07T00:55:06;101251.44;;;3.85;95.86
74370;BME280;71062;44.520;11.342;2023-12-07T00:57:31;101254.47;;;3.77;95.88
74370;BME280;71062;44.520;11.342;2023-12-07T00:59:57;101257.09;;;3.72;96.49
74370;BME280;71062;44.520;11.342;2023-12-07T01:02:23;101260.94;;;3.71;96.76
74370;BME280;71062;44.520;11.342;2023-12-07T01:04:48;101255.88;;;3.61;97.15
74370;BME280;71062;44.520;11.342;2023-12-07T01:07:14;101263.34;;;3.61;97.27
74370;BME280;71062;44.520;11.342;2023-12-07T01:09:40;101260.75;;;3.66;97.31
74370;BME280;71062;44.520;11.342;2023-12-07T01:12:05;101266.53;;;3.64;97.32
74370;BME280;71062;44.520;11.342;2023-12-07T01:14:31;101275.53;;;3.60;97.73
74370;BME280;71062;44.520;11.342;2023-12-07T01:16:57;101271.94;;;3.53;98.14
74370;BME280;71062;44.520;11.342;2023-12-07T01:19:23;101278.38;;;3.53;97.88
74370;BME280;71062;44.520;11.342;2023-12-07T01:21:50;101285.41;;;3.56;97.82
74370;BME280;71062;44.520;11.342;2023-12-07T01:24:16;101273.47;;;3.49;98.04
74370;BME280;71062;44.520;11.342;2023-12-07T01:26:42;101287.53;;;3.54;97.86
74370;BME280;71062;44.520;11.342;2023-12-07T01:29:07;101285.22;;;3.51;98.44
74370;BME280;71062;44.520;11.342;2023-12-07T01:31:34;101288.41;;;3.54;97.83
74370;BME280;71062;44.520;11.342;2023-12-07T01:33:59;101292.50;;;3.52;98.01
74370;BME280;71062;44.520;11.342;2023-12-07T01:36:26;101287.13;;;3.50;97.82
74370;BME280;71062;44.520;11.342;2023-12-07T01:38:52;101303.78;;;3.57;97.75
74370;BME280;71062;44.520;11.342;2023-12-07T01:41:17;101310.59;;;3.61;97.37
74370;BME280;71062;44.520;11.342;2023-12-07T01:43:46;101311.63;;;3.66;97.30
74370;BME280;71062;44.520;11.342;2023-12-07T01:46:13;101316.16;;;3.61;97.26
74370;BME280;71062;44.520;11.342;2023-12-07T01:48:39;101323.88;;;3.59;97.47
74370;BME280;71062;44.520;11.342;2023-12-07T01:51:05;101321.72;;;3.61;97.05
74370;BME280;71062;44.520;11.342;2023-12-07T01:53:32;101321.72;;;3.61;98.83
74370;BME280;71062;44.520;11.342;2023-12-07T01:55:59;101321.72;;;3.61;97.32
74370;BME280;71062;44.520;11.342;2023-12-07T01:58:25;101322.56;;;3.61;97.94
74370;BME280;71062;44.520;11.342;2023-12-07T02:00:50;101322.38;;;3.56;97.49
74370;BME280;71062;44.520;11.342;2023-12-07T02:03:16;101332.81;;;3.67;97.84
74370;BME280;71062;44.520;11.342;2023-12-07T02:05:47;101329.00;;;3.62;97.52
74370;BME280;71062;44.520;11.342;2023-12-07T02:08:13;101323.09;;;3.38;99.69
74370;BME280;71062;44.520;11.342;2023-12-07T02:10:39;101338.91;;;3.45;98.62
74370;BME280;71062;44.520;11.342;2023-12-07T02:13:06;101330.44;;;3.20;100.00
74370;BME280;71062;44.520;11.342;2023-12-07T02:15:32;101330.81;;;3.36;99.72
74370;BME280;71062;44.520;11.342;2023-12-07T02:20:54;101330.34;;;3.39;98.24
74370;BME280;71062;44.520;11.342;2023-12-07T02:23:21;101333.56;;;3.36;98.80
74370;BME280;71062;44.520;11.342;2023-12-07T02:26:20;101335.53;;;3.29;98.63
74370;BME280;71062;44.520;11.342;2023-12-07T02:28:48;101334.66;;;3.35;98.85
74370;BME280;71062;44.520;11.342;2023-12-07T02:31:14;101329.75;;;3.31;99.01
74370;BME280;71062;44.520;11.342;2023-12-07T02:33:39;101324.88;;;3.26;98.74
74370;BME280;71062;44.520;11.342;2023-12-07T02:36:05;101330.44;;;3.13;100.00
74370;BME280;71062;44.520;11.342;2023-12-07T02:38:32;101324.31;;;2.85;100.00
74370;BME280;71062;44.520;11.342;2023-12-07T02:40:59;101324.13;;;2.80;100.00
74370;BME280;71062;44.520;11.342;2023-12-07T02:43:26;101334.13;;;2.94;100.00
74370;BME280;71062;44.520;11.342;2023-12-07T02:45:52;101303.00;;;2.79;100.00
74370;BME280;71062;44.520;11.342;2023-12-07T02:48:20;101316.81;;;2.92;100.00
74370;BME280;71062;44.520;11.342;2023-12-07T02:50:46;101313.44;;;2.90;100.00
74370;BME280;71062;44.520;11.342;2023-12-07T02:53:12;101302.69;;;3.07;100.00
74370;BME280;71062;44.520;11.342;2023-12-07T02:55:38;101327.53;;;2.95;100.00
74370;BME280;71062;44.520;11.342;2023-12-07T02:58:04;101323.28;;;2.73;100.00
74370;BME280;71062;44.520;11.342;2023-12-07T03:00:29;101335.66;;;2.77;100.00
74370;BME280;71062;44.520;11.342;2023-12-07T03:02:55;101333.53;;;2.66;100.00
74370;BME280;71062;44.520;11.342;2023-12-07T03:05:21;101337.38;;;2.65;100.00
74370;BME280;71062;44.520;11.342;2023-12-07T03:07:48;101327.56;;;2.56;100.00
74370;BME280;71062;44.520;11.342;2023-12-07T03:10:14;101336.13;;;2.48;100.00
74370;BME280;71062;44.520;11.342;2023-12-07T03:12:40;101348.69;;;2.44;100.00
74370;BME280;71062;44.520;11.342;2023-12-07T03:15:06;101340.16;;;2.39;100.00
74370;BME280;71062;44.520;11.342;2023-12-07T03:17:32;101351.47;;;2.44;100.00
74370;BME280;71062;44.520;11.342;2023-12-07T03:19:57;101352.75;;;2.74;100.00
74370;BME280;71062;44.520;11.342;2023-12-07T03:22:23;101341.00;;;2.72;100.00
74370;BME280;71062;44.520;11.342;2023-12-07T03:24:51;101332.69;;;2.66;100.00
74370;BME280;71062;44.520;11.342;2023-12-07T03:27:17;101357.44;;;2.87;100.00
74370;BME280;71062;44.520;11.342;2023-12-07T03:29:43;101320.09;;;2.57;100.00
74370;BME280;71062;44.520;11.342;2023-12-07T03:32:09;101337.38;;;2.72;100.00
74370;BME280;71062;44.520;11.342;2023-12-07T03:34:35;101354.44;;;2.88;100.00
74370;BME280;71062;44.520;11.342;2023-12-07T03:37:00;101359.13;;;3.01;100.00
74370;BME280;71062;44.520;11.342;2023-12-07T03:39:27;101353.56;;;2.94;100.00
74370;BME280;71062;44.520;11.342;2023-12-07T03:41:55;101329.66;;;2.80;100.00
74370;BME280;71062;44.520;11.342;2023-12-07T03:44:20;101348.25;;;2.86;99.88
74370;BME280;71062;44.520;11.342;2023-12-07T03:46:47;101338.19;;;2.85;100.00
74370;BME280;71062;44.520;11.342;2023-12-07T03:49:13;101358.25;;;3.00;100.00
74370;BME280;71062;44.520;11.342;2023-12-07T03:51:39;101317.28;;;2.89;99.20
74370;BME280;71062;44.520;11.342;2023-12-07T03:54:05;101355.69;;;3.05;98.92
74370;BME280;71062;44.520;11.342;2023-12-07T03:56:32;101362.53;;;3.09;98.98
74370;BME280;71062;44.520;11.342;2023-12-07T03:58:58;101367.19;;;3.15;98.62
74370;BME280;71062;44.520;11.342;2023-12-07T04:01:24;101340.53;;;2.95;98.29
74370;BME280;71062;44.520;11.342;2023-12-07T04:03:51;101373.22;;;3.06;98.22
74370;BME280;71062;44.520;11.342;2023-12-07T04:06:17;101372.78;;;3.09;98.49
74370;BME280;71062;44.520;11.342;2023-12-07T04:08:44;101390.28;;;3.09;98.60
74370;BME280;71062;44.520;11.342;2023-12-07T04:11:10;101388.16;;;3.05;98.47
74370;BME280;71062;44.520;11.342;2023-12-07T04:13:36;101384.53;;;3.04;98.74
74370;BME280;71062;44.520;11.342;2023-12-07T04:16:02;101382.22;;;2.88;99.08
74370;BME280;71062;44.520;11.342;2023-12-07T04:18:28;101387.31;;;2.98;100.00
74370;BME280;71062;44.520;11.342;2023-12-07T04:20:54;101390.28;;;3.09;99.87
74370;BME280;71062;44.520;11.342;2023-12-07T04:23:20;101395.84;;;3.03;98.64
74370;BME280;71062;44.520;11.342;2023-12-07T04:25:46;101394.59;;;2.79;100.00
74370;BME280;71062;44.520;11.342;2023-12-07T04:28:12;101378.56;;;2.75;99.25
74370;BME280;71062;44.520;11.342;2023-12-07T04:30:38;101403.13;;;2.84;98.96
74370;BME280;71062;44.520;11.342;2023-12-07T04:33:03;101376.00;;;2.73;98.95
74370;BME280;71062;44.520;11.342;2023-12-07T04:35:32;101394.34;;;2.87;98.88
74370;BME280;71062;44.520;11.342;2023-12-07T04:37:58;101389.66;;;2.94;98.68
74370;BME280;71062;44.520;11.342;2023-12-07T04:40:26;101374.94;;;2.87;98.62
74370;BME280;71062;44.520;11.342;2023-12-07T04:42:52;101398.84;;;2.95;98.77
74370;BME280;71062;44.520;11.342;2023-12-07T04:45:18;101396.28;;;2.93;98.40
74370;BME280;71062;44.520;11.342;2023-12-07T04:47:45;101395.41;;;2.99;98.08
74370;BME280;71062;44.520;11.342;2023-12-07T04:50:11;101394.59;;;2.79;98.51
74370;BME280;71062;44.520;11.342;2023-12-07T04:52:37;101418.50;;;2.93;98.14
74370;BME280;71062;44.520;11.342;2023-12-07T04:55:04;101404.63;;;2.87;98.33
74370;BME280;71062;44.520;11.342;2023-12-07T04:57:34;101413.38;;;2.90;97.95
74370;BME280;71062;44.520;11.342;2023-12-07T05:00:01;101415.94;;;2.85;98.30
74370;BME280;71062;44.520;11.342;2023-12-07T05:02:31;101405.25;;;2.82;98.36
74370;BME280;71062;44.520;11.342;2023-12-07T05:04:57;101413.81;;;2.81;98.32
74370;BME280;71062;44.520;11.342;2023-12-07T05:07:23;101412.28;;;2.78;98.53
74370;BME280;71062;44.520;11.342;2023-12-07T05:09:49;101428.34;;;2.83;98.89
74370;BME280;71062;44.520;11.342;2023-12-07T05:12:17;101431.31;;;2.88;98.66
74370;BME280;71062;44.520;11.342;2023-12-07T05:14:43;101422.78;;;2.83;98.21
74370;BME280;71062;44.520;11.342;2023-12-07T05:17:09;101431.75;;;2.91;98.28
74370;BME280;71062;44.520;11.342;2023-12-07T05:19:35;101434.75;;;2.90;98.12
74370;BME280;71062;44.520;11.342;2023-12-07T05:22:01;101440.91;;;2.85;98.12
74370;BME280;71062;44.520;11.342;2023-12-07T05:24:28;101438.16;;;2.72;98.13
74370;BME280;71062;44.520;11.342;2023-12-07T05:26:55;101445.84;;;2.83;98.13
74370;BME280;71062;44.520;11.342;2023-12-07T05:29:21;101447.94;;;2.75;98.48
74370;BME280;71062;44.520;11.342;2023-12-07T05:31:50;101439.00;;;2.73;98.33
74370;BME280;71062;44.520;11.342;2023-12-07T05:34:18;101448.81;;;2.75;98.33
74370;BME280;71062;44.520;11.342;2023-12-07T05:36:44;101453.94;;;2.78;98.41
74370;BME280;71062;44.520;11.342;2023-12-07T05:39:11;101427.47;;;2.69;97.81
74370;BME280;71062;44.520;11.342;2023-12-07T05:41:38;101453.50;;;2.75;97.76
74370;BME280;71062;44.520;11.342;2023-12-07T05:44:04;101445.19;;;2.68;98.03
74370;BME280;71062;44.520;11.342;2023-12-07T05:46:29;101449.69;;;2.69;97.92
74370;BME280;71062;44.520;11.342;2023-12-07T05:48:55;101431.31;;;2.55;98.19
74370;BME280;71062;44.520;11.342;2023-12-07T05:51:22;101444.53;;;2.66;97.98
74370;BME280;71062;44.520;11.342;2023-12-07T05:53:48;101450.53;;;2.63;97.98
74370;BME280;71062;44.520;11.342;2023-12-07T05:56:18;101439.41;;;2.50;98.38
74370;BME280;71062;44.520;11.342;2023-12-07T05:58:45;101460.75;;;2.63;98.29
74370;BME280;71062;44.520;11.342;2023-12-07T06:01:10;101469.72;;;2.71;98.13
74370;BME280;71062;44.520;11.342;2023-12-07T06:03:36;101464.38;;;2.63;97.90
74370;BME280;71062;44.520;11.342;2023-12-07T06:06:02;101462.88;;;2.61;97.85
74370;BME280;71062;44.520;11.342;2023-12-07T06:08:28;101477.19;;;2.64;98.37
74370;BME280;71062;44.520;11.342;2023-12-07T06:10:57;101470.38;;;2.60;98.22
74370;BME280;71062;44.520;11.342;2023-12-07T06:13:22;101447.75;;;2.50;98.00
74370;BME280;71062;44.520;11.342;2023-12-07T06:15:50;101460.75;;;2.50;98.66
74370;BME280;71062;44.520;11.342;2023-12-07T06:18:16;101467.16;;;2.57;98.35
74370;BME280;71062;44.520;11.342;2023-12-07T06:20:41;101473.78;;;2.62;98.69
74370;BME280;71062;44.520;11.342;2023-12-07T06:23:07;101466.53;;;2.55;98.55
74370;BME280;71062;44.520;11.342;2023-12-07T06:25:41;101471.84;;;2.56;98.39
74370;BME280;71062;44.520;11.342;2023-12-07T06:28:07;101474.84;;;2.55;98.57
74370;BME280;71062;44.520;11.342;2023-12-07T06:30:33;101457.72;;;2.38;98.54
74370;BME280;71062;44.520;11.342;2023-12-07T06:33:00;101470.13;;;2.49;98.30
74370;BME280;71062;44.520;11.342;2023-12-07T06:35:26;101465.88;;;2.46;98.43
74370;BME280;71062;44.520;11.342;2023-12-07T06:37:52;101472.91;;;2.49;98.22
74370;BME280;71062;44.520;11.342;2023-12-07T06:40:17;101474.19;;;2.46;98.41
74370;BME280;71062;44.520;11.342;2023-12-07T06:42:43;101467.16;;;2.50;97.98
74370;BME280;71062;44.520;11.342;2023-12-07T06:45:09;101481.66;;;2.52;98.36
74370;BME280;71062;44.520;11.342;2023-12-07T06:47:39;101456.25;;;2.42;97.80
74370;BME280;71062;44.520;11.342;2023-12-07T06:50:05;101466.09;;;2.45;98.04
74370;BME280;71062;44.520;11.342;2023-12-07T06:52:34;101475.50;;;2.50;97.83
74370;BME280;71062;44.520;11.342;2023-12-07T06:55:00;101492.34;;;2.55;97.50
74370;BME280;71062;44.520;11.342;2023-12-07T06:57:25;101484.44;;;2.52;97.83
74370;BME280;71062;44.520;11.342;2023-12-07T06:59:51;101473.53;;;2.44;97.68
74370;BME280;71062;44.520;11.342;2023-12-07T07:02:17;101510.75;;;2.69;97.06
74370;BME280;71062;44.520;11.342;2023-12-07T07:04:42;101493.41;;;2.54;97.36
74370;BME280;71062;44.520;11.342;2023-12-07T07:07:09;101501.78;;;2.67;96.88
74370;BME280;71062;44.520;11.342;2023-12-07T07:09:35;101499.63;;;2.69;96.57
74370;BME280;71062;44.520;11.342;2023-12-07T07:12:00;101521.84;;;2.82;96.41
74370;BME280;71062;44.520;11.342;2023-12-07T07:14:26;101527.84;;;2.92;95.89
74370;BME280;71062;44.520;11.342;2023-12-07T07:16:52;101522.28;;;2.92;95.78
74370;BME280;71062;44.520;11.342;2023-12-07T07:19:17;101529.13;;;2.96;95.35
74370;BME280;71062;44.520;11.342;2023-12-07T07:21:43;101521.44;;;2.98;95.38
74370;BME280;71062;44.520;11.342;2023-12-07T07:24:10;101542.38;;;3.07;95.09
74370;BME280;71062;44.520;11.342;2023-12-07T07:26:35;101540.69;;;3.13;95.01
74370;BME280;71062;44.520;11.342;2023-12-07T07:29:01;101544.09;;;3.15;94.74
74370;BME280;71062;44.520;11.342;2023-12-07T07:31:28;101547.28;;;3.12;94.36
74370;BME280;71062;44.520;11.342;2023-12-07T07:33:55;101549.22;;;3.24;93.89
74370;BME280;71062;44.520;11.342;2023-12-07T07:36:21;101542.84;;;3.30;93.31
74370;BME280;71062;44.520;11.342;2023-12-07T07:38:47;101539.81;;;3.38;92.92
74370;BME280;71062;44.520;11.342;2023-12-07T07:41:14;101545.38;;;3.45;92.69
74370;BME280;71062;44.520;11.342;2023-12-07T07:43:40;101546.22;;;3.46;92.35
74370;BME280;71062;44.520;11.342;2023-12-07T07:46:06;101537.25;;;3.50;92.41
74370;BME280;71062;44.520;11.342;2023-12-07T07:48:31;101541.94;;;3.63;91.79
74370;BME280;71062;44.520;11.342;2023-12-07T07:50:57;101534.22;;;3.65;91.29
74370;BME280;71062;44.520;11.342;2023-12-07T07:53:23;101541.47;;;3.79;90.99
74370;BME280;71062;44.520;11.342;2023-12-07T07:55:49;101548.72;;;3.93;90.81
74370;BME280;71062;44.520;11.342;2023-12-07T07:58:14;101545.28;;;3.91;90.44
74370;BME280;71062;44.520;11.342;2023-12-07T08:00:40;101551.06;;;4.02;90.10
74370;BME280;71062;44.520;11.342;2023-12-07T08:03:06;101563.63;;;4.11;89.56
74370;BME280;71062;44.520;11.342;2023-12-07T08:05:32;101547.34;;;4.21;88.59
74370;BME280;71062;44.520;11.342;2023-12-07T08:07:58;101560.97;;;4.36;88.38
74370;BME280;71062;44.520;11.342;2023-12-07T08:10:24;101569.09;;;4.44;88.03
74370;BME280;71062;44.520;11.342;2023-12-07T08:12:49;101566.91;;;4.52;87.99
74370;BME280;71062;44.520;11.342;2023-12-07T08:15:15;101555.38;;;4.49;88.06
74370;BME280;71062;44.520;11.342;2023-12-07T08:17:42;101573.53;;;4.58;88.09
74370;BME280;71062;44.520;11.342;2023-12-07T08:20:08;101567.06;;;4.64;87.94
74370;BME280;71062;44.520;11.342;2023-12-07T08:22:36;101565.09;;;4.71;87.57
74370;BME280;71062;44.520;11.342;2023-12-07T08:25:02;101565.84;;;4.85;86.93
74370;BME280;71062;44.520;11.342;2023-12-07T08:27:33;101556.00;;;4.89;86.97
74370;BME280;71062;44.520;11.342;2023-12-07T08:29:59;101564.03;;;5.03;86.86
74370;BME280;71062;44.520;11.342;2023-12-07T08:32:24;101573.09;;;5.23;85.35
74370;BME280;71062;44.520;11.342;2023-12-07T08:34:51;101568.50;;;5.35;84.13
74370;BME280;71062;44.520;11.342;2023-12-07T08:37:17;101578.03;;;5.52;84.13
74370;BME280;71062;44.520;11.342;2023-12-07T08:39:43;101577.63;;;5.74;81.42
74370;BME280;71062;44.520;11.342;2023-12-07T08:42:08;101576.25;;;5.83;80.23
74370;BME280;71062;44.520;11.342;2023-12-07T08:44:34;101588.22;;;5.90;78.88
74370;BME280;71062;44.520;11.342;2023-12-07T08:46:59;101576.84;;;6.09;78.09
74370;BME280;71062;44.520;11.342;2023-12-07T08:49:25;101574.06;;;6.09;76.89
74370;BME280;71062;44.520;11.342;2023-12-07T08:51:51;101578.03;;;6.20;76.12
74370;BME280;71062;44.520;11.342;2023-12-07T08:54:18;101575.38;;;6.25;74.88
74370;BME280;71062;44.520;11.342;2023-12-07T08:56:45;101573.59;;;6.30;74.20
74370;BME280;71062;44.520;11.342;2023-12-07T08:59:11;101570.56;;;6.32;74.30
74370;BME280;71062;44.520;11.342;2023-12-07T09:01:36;101579.28;;;6.42;74.21
74370;BME280;71062;44.520;11.342;2023-12-07T09:04:02;101583.28;;;6.46;74.02
74370;BME280;71062;44.520;11.342;2023-12-07T09:06:28;101569.66;;;6.38;73.09
74370;BME280;71062;44.520;11.342;2023-12-07T09:08:54;101578.81;;;6.63;73.00
74370;BME280;71062;44.520;11.342;2023-12-07T09:11:20;101597.69;;;6.79;71.76
74370;BME280;71062;44.520;11.342;2023-12-07T09:13:46;101594.72;;;6.92;71.57
74370;BME280;71062;44.520;11.342;2023-12-07T09:16:12;101603.91;;;7.11;71.58
74370;BME280;71062;44.520;11.342;2023-12-07T09:18:38;101603.16;;;7.04;71.88
74370;BME280;71062;44.520;11.342;2023-12-07T09:21:03;101599.81;;;7.25;70.94
74370;BME280;71062;44.520;11.342;2023-12-07T09:23:29;101607.59;;;7.23;73.72
74370;BME280;71062;44.520;11.342;2023-12-07T09:25:55;101613.13;;;7.29;72.57
74370;BME280;71062;44.520;11.342;2023-12-07T09:28:20;101616.22;;;7.21;73.12
74370;BME280;71062;44.520;11.342;2023-12-07T09:30:46;101612.00;;;7.30;71.79
74370;BME280;71062;44.520;11.342;2023-12-07T09:33:12;101619.91;;;7.33;71.03
74370;BME280;71062;44.520;11.342;2023-12-07T09:35:39;101616.13;;;7.57;71.81
74370;BME280;71062;44.520;11.342;2023-12-07T09:38:04;101612.78;;;7.49;70.76
74370;BME280;71062;44.520;11.342;2023-12-07T09:40:30;101630.72;;;7.71;71.07
74370;BME280;71062;44.520;11.342;2023-12-07T09:42:56;101624.88;;;7.72;70.87
74370;BME280;71062;44.520;11.342;2023-12-07T09:45:22;101622.84;;;7.91;72.92
74370;BME280;71062;44.520;11.342;2023-12-07T09:50:17;101615.94;;;8.17;69.98
74370;BME280;71062;44.520;11.342;2023-12-07T09:52:43;101614.19;;;8.16;70.91
74370;BME280;71062;44.520;11.342;2023-12-07T09:55:09;101623.22;;;8.18;71.60
74370;BME280;71062;44.520;11.342;2023-12-07T09:57:37;101620.91;;;8.49;70.87
74370;BME280;71062;44.520;11.342;2023-12-07T10:00:04;101611.16;;;8.63;66.92
74370;BME280;71062;44.520;11.342;2023-12-07T10:02:30;101616.59;;;8.70;66.10
74370;BME280;71062;44.520;11.342;2023-12-07T10:05:07;101611.44;;;8.90;64.23
74370;BME280;71062;44.520;11.342;2023-12-07T10:07:38;101610.44;;;8.96;64.02
74370;BME280;71062;44.520;11.342;2023-12-07T10:10:05;101612.34;;;9.07;65.24
74370;BME280;71062;44.520;11.342;2023-12-07T10:12:31;101614.91;;;9.09;64.71
74370;BME280;71062;44.520;11.342;2023-12-07T10:15:11;101608.75;;;8.95;64.01
74370;BME280;71062;44.520;11.342;2023-12-07T10:17:51;101607.25;;;9.04;65.25
74370;BME280;71062;44.520;11.342;2023-12-07T10:20:19;101595.06;;;8.98;64.65
74370;BME280;71062;44.520;11.342;2023-12-07T10:23:10;101593.84;;;9.06;66.15
74370;BME280;71062;44.520;11.342;2023-12-07T10:25:39;101587.41;;;9.22;63.96
74370;BME280;71062;44.520;11.342;2023-12-07T10:28:09;101585.19;;;9.24;63.86
74370;BME280;71062;44.520;11.342;2023-12-07T10:30:40;101575.09;;;8.95;63.96
74370;BME280;71062;44.520;11.342;2023-12-07T10:33:07;101584.31;;;9.07;65.20
74370;BME280;71062;44.520;11.342;2023-12-07T10:35:37;101579.69;;;9.01;64.67
74370;BME280;71062;44.520;11.342;2023-12-07T10:38:04;101586.69;;;9.15;65.06
74370;BME280;71062;44.520;11.342;2023-12-07T10:40:30;101583.25;;;8.96;65.68
74370;BME280;71062;44.520;11.342;2023-12-07T10:42:57;101582.81;;;8.88;66.40
74370;BME280;71062;44.520;11.342;2023-12-07T10:45:29;101575.09;;;8.95;66.92
74370;BME280;71062;44.520;11.342;2023-12-07T10:47:59;101576.00;;;9.12;66.87
74370;BME280;71062;44.520;11.342;2023-12-07T10:50:28;101564.31;;;8.75;67.60
74370;BME280;71062;44.520;11.342;2023-12-07T10:52:59;101567.97;;;8.76;67.47
74370;BME280;71062;44.520;11.342;2023-12-07T10:55:30;101560.41;;;8.76;67.69
74370;BME280;71062;44.520;11.342;2023-12-07T10:57:58;101550.72;;;8.95;67.61
74370;BME280;71062;44.520;11.342;2023-12-07T11:00:25;101565.72;;;9.18;68.19
74370;BME280;71062;44.520;11.342;2023-12-07T11:02:53;101562.25;;;9.27;67.10
74370;BME280;71062;44.520;11.342;2023-12-07T11:05:19;101557.53;;;9.44;68.08
74370;BME280;71062;44.520;11.342;2023-12-07T11:07:52;101556.16;;;9.47;66.51
74370;BME280;71062;44.520;11.342;2023-12-07T11:10:27;101545.78;;;9.47;67.45
74370;BME280;71062;44.520;11.342;2023-12-07T11:13:07;101554.97;;;8.98;67.95
74370;BME280;71062;44.520;11.342;2023-12-07T11:15:34;101555.16;;;8.80;69.44
74370;BME280;71062;44.520;11.342;2023-12-07T11:18:02;101545.22;;;8.61;70.16
74370;BME280;71062;44.520;11.342;2023-12-07T11:20:41;101545.22;;;8.61;70.80
74370;BME280;71062;44.520;11.342;2023-12-07T11:23:08;101543.06;;;9.52;67.74
74370;BME280;71062;44.520;11.342;2023-12-07T11:25:35;101537.06;;;10.32;64.70
74370;BME280;71062;44.520;11.342;2023-12-07T11:28:05;101536.97;;;11.18;62.23
74370;BME280;71062;44.520;11.342;2023-12-07T11:30:32;101535.72;;;11.62;60.52
74370;BME280;71062;44.520;11.342;2023-12-07T11:33:00;101531.56;;;12.01;58.80
74370;BME280;71062;44.520;11.342;2023-12-07T11:35:26;101531.16;;;12.24;58.43
74370;BME280;71062;44.520;11.342;2023-12-07T11:38:09;101527.63;;;11.66;59.29
74370;BME280;71062;44.520;11.342;2023-12-07T11:40:40;101515.75;;;12.00;58.86
74370;BME280;71062;44.520;11.342;2023-12-07T11:43:07;101516.19;;;12.19;58.24
74370;BME280;71062;44.520;11.342;2023-12-07T11:48:13;101512.59;;;12.33;57.63
74370;BME280;71062;44.520;11.342;2023-12-07T11:53:34;101512.47;;;12.70;57.57
74370;BME280;71062;44.520;11.342;2023-12-07T11:56:02;101520.19;;;13.00;57.31
74370;BME280;71062;44.520;11.342;2023-12-07T11:58:33;101514.28;;;12.29;58.71
74370;BME280;71062;44.520;11.342;2023-12-07T12:01:00;101497.72;;;11.96;58.91
74370;BME280;71062;44.520;11.342;2023-12-07T12:03:26;101517.44;;;12.43;58.45
74370;BME280;71062;44.520;11.342;2023-12-07T12:05:52;101527.50;;;12.29;58.34
74370;BME280;71062;44.520;11.342;2023-12-07T12:08:19;101528.13;;;12.98;57.48
74370;BME280;71062;44.520;11.342;2023-12-07T12:10:46;101512.25;;;12.77;57.56
74370;BME280;71062;44.520;11.342;2023-12-07T12:13:11;101524.19;;;13.04;57.02
74370;BME280;71062;44.520;11.342;2023-12-07T12:15:40;101513.75;;;13.04;57.40
74370;BME280;71062;44.520;11.342;2023-12-07T12:18:07;101509.25;;;13.08;55.67
74370;BME280;71062;44.520;11.342;2023-12-07T12:20:33;101489.84;;;13.57;55.61
74370;BME280;71062;44.520;11.342;2023-12-07T12:22:59;101505.63;;;13.93;54.05
74370;BME280;71062;44.520;11.342;2023-12-07T12:25:29;101510.13;;;13.89;54.00
74370;BME280;71062;44.520;11.342;2023-12-07T12:28:02;101505.91;;;13.67;54.82
74370;BME280;71062;44.520;11.342;2023-12-07T12:30:29;101499.97;;;13.68;52.63
74370;BME280;71062;44.520;11.342;2023-12-07T12:32:55;101498.50;;;14.16;52.28
74370;BME280;71062;44.520;11.342;2023-12-07T12:35:21;101512.44;;;13.57;51.82
74370;BME280;71062;44.520;11.342;2023-12-07T12:37:47;101510.31;;;12.92;53.52
74370;BME280;71062;44.520;11.342;2023-12-07T12:40:18;101506.66;;;12.97;53.02
74370;BME280;71062;44.520;11.342;2023-12-07T12:42:49;101519.72;;;13.18;54.66
74370;BME280;71062;44.520;11.342;2023-12-07T12:45:16;101514.97;;;13.59;53.19
74370;BME280;71062;44.520;11.342;2023-12-07T12:47:44;101511.00;;;13.39;53.09
74370;BME280;71062;44.520;11.342;2023-12-07T12:50:11;101504.75;;;14.13;51.73
74370;BME280;71062;44.520;11.342;2023-12-07T12:52:37;101505.34;;;13.90;51.19
74370;BME280;71062;44.520;11.342;2023-12-07T12:55:10;101496.00;;;14.09;50.99
74370;BME280;71062;44.520;11.342;2023-12-07T12:57:37;101506.13;;;14.25;50.91